sensor_id;sensor_type;location;lat;lon;timestamp;P1;durP1;ratioP1;P2;durP2;ratioP2
10479;SDS011;12789;42.610;23.040;2023-02-28T00:00:36;28.23;;;16.13;;
10479;SDS011;12789;42.610;23.040;2023-02-28T00:03:03;24.07;;;15.67;;
10479;SDS011;12789;42.610;23.040;2023-02-28T00:05:31;24.73;;;15.43;;
10479;SDS011;12789;42.610;23.040;2023-02-28T00:07:57;25.40;;;16.10;;
10479;SDS011;12789;42.610;23.040;2023-02-28T00:10:26;20.33;;;14.37;;
10479;SDS011;12789;42.610;23.040;2023-02-28T00:12:54;27.47;;;16.03;;
10479;SDS011;12789;42.610;23.040;2023-02-28T00:15:24;22.93;;;15.40;;
10479;SDS011;12789;42.610;23.040;2023-02-28T00:17:51;26.97;;;16.13;;
10479;SDS011;12789;42.610;23.040;2023-02-28T00:20:18;26.17;;;15.33;;
10479;SDS011;12789;42.610;23.040;2023-02-28T00:22:46;22.03;;;14.67;;
10479;SDS011;12789;42.610;23.040;2023-02-28T00:25:15;26.97;;;14.50;;
10479;SDS011;12789;42.610;23.040;2023-02-28T00:27:43;25.20;;;13.93;;
10479;SDS011;12789;42.610;23.040;2023-02-28T00:30:11;23.40;;;14.70;;
10479;SDS011;12789;42.610;23.040;2023-02-28T00:32:41;22.37;;;14.90;;
10479;SDS011;12789;42.610;23.040;2023-02-28T00:35:08;22.57;;;14.10;;
10479;SDS011;12789;42.610;23.040;2023-02-28T00:37:35;24.10;;;15.00;;
10479;SDS011;12789;42.610;23.040;2023-02-28T00:40:03;23.57;;;14.93;;
10479;SDS011;12789;42.610;23.040;2023-02-28T00:42:31;20.73;;;15.03;;
10479;SDS011;12789;42.610;23.040;2023-02-28T00:44:58;22.67;;;15.07;;
10479;SDS011;12789;42.610;23.040;2023-02-28T00:47:25;24.63;;;15.10;;
10479;SDS011;12789;42.610;23.040;2023-02-28T00:49:53;25.43;;;15.47;;
10479;SDS011;12789;42.610;23.040;2023-02-28T00:52:19;32.70;;;18.60;;
10479;SDS011;12789;42.610;23.040;2023-02-28T00:54:46;34.37;;;18.90;;
10479;SDS011;12789;42.610;23.040;2023-02-28T00:57:13;27.43;;;16.30;;
10479;SDS011;12789;42.610;23.040;2023-02-28T00:59:40;17.90;;;11.80;;
10479;SDS011;12789;42.610;23.040;2023-02-28T01:02:07;17.40;;;9.20;;
10479;SDS011;12789;42.610;23.040;2023-02-28T01:04:33;14.40;;;9.07;;
10479;SDS011;12789;42.610;23.040;2023-02-28T01:07:02;15.63;;;10.37;;
10479;SDS011;12789;42.610;23.040;2023-02-28T01:09:28;16.10;;;10.43;;
10479;SDS011;12789;42.610;23.040;2023-02-28T01:11:55;17.13;;;11.50;;
10479;SDS011;12789;42.610;23.040;2023-02-28T01:14:22;22.17;;;12.50;;
10479;SDS011;12789;42.610;23.040;2023-02-28T01:16:49;38.97;;;12.90;;
10479;SDS011;12789;42.610;23.040;2023-02-28T01:19:16;52.33;;;12.50;;
10479;SDS011;12789;42.610;23.040;2023-02-28T01:21:43;29.40;;;12.50;;
10479;SDS011;12789;42.610;23.040;2023-02-28T01:24:11;27.93;;;13.17;;
10479;SDS011;12789;42.610;23.040;2023-02-28T01:26:38;37.63;;;12.80;;
10479;SDS011;12789;42.610;23.040;2023-02-28T01:29:05;32.13;;;11.60;;
10479;SDS011;12789;42.610;23.040;2023-02-28T01:31:31;24.50;;;11.80;;
10479;SDS011;12789;42.610;23.040;2023-02-28T01:33:58;27.90;;;12.03;;
10479;SDS011;12789;42.610;23.040;2023-02-28T01:36:25;25.10;;;12.03;;
10479;SDS011;12789;42.610;23.040;2023-02-28T01:38:52;38.17;;;12.50;;
10479;SDS011;12789;42.610;23.040;2023-02-28T01:41:21;33.83;;;12.70;;
10479;SDS011;12789;42.610;23.040;2023-02-28T01:43:54;29.73;;;13.47;;
10479;SDS011;12789;42.610;23.040;2023-02-28T01:46:23;32.27;;;13.10;;
10479;SDS011;12789;42.610;23.040;2023-02-28T01:48:51;28.40;;;13.37;;
10479;SDS011;12789;42.610;23.040;2023-02-28T01:51:23;35.30;;;14.07;;
10479;SDS011;12789;42.610;23.040;2023-02-28T01:53:57;27.77;;;13.20;;
10479;SDS011;12789;42.610;23.040;2023-02-28T01:56:28;33.50;;;14.30;;
10479;SDS011;12789;42.610;23.040;2023-02-28T01:58:58;27.67;;;13.17;;
10479;SDS011;12789;42.610;23.040;2023-02-28T02:01:26;35.70;;;15.10;;
10479;SDS011;12789;42.610;23.040;2023-02-28T02:03:54;32.73;;;14.23;;
10479;SDS011;12789;42.610;23.040;2023-02-28T02:06:23;31.47;;;14.87;;
10479;SDS011;12789;42.610;23.040;2023-02-28T02:08:53;31.00;;;14.97;;
10479;SDS011;12789;42.610;23.040;2023-02-28T02:11:20;29.67;;;12.33;;
10479;SDS011;12789;42.610;23.040;2023-02-28T02:16:47;22.50;;;9.50;;
10479;SDS011;12789;42.610;23.040;2023-02-28T02:19:44;15.87;;;8.73;;
10479;SDS011;12789;42.610;23.040;2023-02-28T02:22:34;14.93;;;8.87;;
10479;SDS011;12789;42.610;23.040;2023-02-28T02:25:19;37.43;;;9.43;;
10479;SDS011;12789;42.610;23.040;2023-02-28T02:34:09;16.40;;;8.67;;
10479;SDS011;12789;42.610;23.040;2023-02-28T02:36:51;16.80;;;9.07;;
10479;SDS011;12789;42.610;23.040;2023-02-28T02:39:26;18.23;;;9.47;;
10479;SDS011;12789;42.610;23.040;2023-02-28T02:41:58;18.63;;;9.20;;
10479;SDS011;12789;42.610;23.040;2023-02-28T02:44:27;27.47;;;9.57;;
10479;SDS011;12789;42.610;23.040;2023-02-28T02:46:59;26.03;;;9.60;;
10479;SDS011;12789;42.610;23.040;2023-02-28T02:49:36;37.83;;;9.17;;
10479;SDS011;12789;42.610;23.040;2023-02-28T02:52:05;18.70;;;9.43;;
10479;SDS011;12789;42.610;23.040;2023-02-28T02:54:37;18.83;;;9.57;;
10479;SDS011;12789;42.610;23.040;2023-02-28T02:57:08;90.03;;;10.90;;
10479;SDS011;12789;42.610;23.040;2023-02-28T02:59:39;35.30;;;10.70;;
10479;SDS011;12789;42.610;23.040;2023-02-28T03:02:10;23.00;;;11.13;;
10479;SDS011;12789;42.610;23.040;2023-02-28T03:04:43;23.40;;;11.73;;
10479;SDS011;12789;42.610;23.040;2023-02-28T03:07:14;33.43;;;12.10;;
10479;SDS011;12789;42.610;23.040;2023-02-28T03:09:49;32.43;;;11.90;;
10479;SDS011;12789;42.610;23.040;2023-02-28T03:12:17;99.57;;;11.90;;
10479;SDS011;12789;42.610;23.040;2023-02-28T03:14:48;40.50;;;9.93;;
10479;SDS011;12789;42.610;23.040;2023-02-28T03:20:23;35.53;;;11.53;;
10479;SDS011;12789;42.610;23.040;2023-02-28T03:23:01;24.57;;;11.17;;
10479;SDS011;12789;42.610;23.040;2023-02-28T03:25:37;86.10;;;11.23;;
10479;SDS011;12789;42.610;23.040;2023-02-28T03:28:19;94.33;;;11.03;;
10479;SDS011;12789;42.610;23.040;2023-02-28T03:30:54;25.23;;;11.07;;
10479;SDS011;12789;42.610;23.040;2023-02-28T03:33:26;24.17;;;10.30;;
10479;SDS011;12789;42.610;23.040;2023-02-28T03:35:58;70.83;;;11.23;;
10479;SDS011;12789;42.610;23.040;2023-02-28T03:38:29;25.60;;;11.77;;
10479;SDS011;12789;42.610;23.040;2023-02-28T03:41:01;22.20;;;11.33;;
10479;SDS011;12789;42.610;23.040;2023-02-28T03:43:34;27.33;;;11.93;;
10479;SDS011;12789;42.610;23.040;2023-02-28T03:46:06;25.97;;;11.80;;
10479;SDS011;12789;42.610;23.040;2023-02-28T03:48:37;36.00;;;11.50;;
10479;SDS011;12789;42.610;23.040;2023-02-28T03:51:09;37.20;;;14.47;;
10479;SDS011;12789;42.610;23.040;2023-02-28T03:53:40;43.87;;;13.20;;
10479;SDS011;12789;42.610;23.040;2023-02-28T03:56:12;44.57;;;11.80;;
10479;SDS011;12789;42.610;23.040;2023-02-28T03:58:44;29.80;;;12.60;;
10479;SDS011;12789;42.610;23.040;2023-02-28T04:01:16;45.57;;;13.97;;
10479;SDS011;12789;42.610;23.040;2023-02-28T04:03:49;37.30;;;14.67;;
10479;SDS011;12789;42.610;23.040;2023-02-28T04:06:18;44.03;;;15.43;;
10479;SDS011;12789;42.610;23.040;2023-02-28T04:08:47;41.60;;;15.30;;
10479;SDS011;12789;42.610;23.040;2023-02-28T04:11:19;54.37;;;15.30;;
10479;SDS011;12789;42.610;23.040;2023-02-28T04:13:48;60.40;;;16.23;;
10479;SDS011;12789;42.610;23.040;2023-02-28T04:16:15;53.33;;;17.03;;
10479;SDS011;12789;42.610;23.040;2023-02-28T04:18:42;75.00;;;15.87;;
10479;SDS011;12789;42.610;23.040;2023-02-28T04:21:09;39.67;;;16.40;;
10479;SDS011;12789;42.610;23.040;2023-02-28T04:23:38;65.53;;;15.97;;
10479;SDS011;12789;42.610;23.040;2023-02-28T04:26:05;78.57;;;16.77;;
10479;SDS011;12789;42.610;23.040;2023-02-28T04:28:32;55.80;;;16.63;;
10479;SDS011;12789;42.610;23.040;2023-02-28T04:30:59;57.90;;;16.33;;
10479;SDS011;12789;42.610;23.040;2023-02-28T04:33:27;59.20;;;15.80;;
10479;SDS011;12789;42.610;23.040;2023-02-28T04:35:58;68.00;;;15.10;;
10479;SDS011;12789;42.610;23.040;2023-02-28T04:38:26;76.17;;;15.63;;
10479;SDS011;12789;42.610;23.040;2023-02-28T04:40:56;83.53;;;14.33;;
10479;SDS011;12789;42.610;23.040;2023-02-28T04:43:23;67.63;;;14.33;;
10479;SDS011;12789;42.610;23.040;2023-02-28T04:45:50;66.40;;;14.60;;
10479;SDS011;12789;42.610;23.040;2023-02-28T04:48:19;88.00;;;17.00;;
10479;SDS011;12789;42.610;23.040;2023-02-28T04:50:45;79.73;;;13.93;;
10479;SDS011;12789;42.610;23.040;2023-02-28T04:53:15;81.23;;;14.73;;
10479;SDS011;12789;42.610;23.040;2023-02-28T04:55:42;63.10;;;13.43;;
10479;SDS011;12789;42.610;23.040;2023-02-28T04:58:10;41.77;;;14.40;;
10479;SDS011;12789;42.610;23.040;2023-02-28T05:00:37;59.87;;;14.90;;
10479;SDS011;12789;42.610;23.040;2023-02-28T05:03:04;38.83;;;12.87;;
10479;SDS011;12789;42.610;23.040;2023-02-28T05:05:31;57.33;;;14.20;;
10479;SDS011;12789;42.610;23.040;2023-02-28T05:07:58;69.97;;;14.70;;
10479;SDS011;12789;42.610;23.040;2023-02-28T05:10:25;48.23;;;15.20;;
10479;SDS011;12789;42.610;23.040;2023-02-28T05:12:51;32.03;;;13.50;;
10479;SDS011;12789;42.610;23.040;2023-02-28T05:15:20;27.50;;;11.03;;
10479;SDS011;12789;42.610;23.040;2023-02-28T05:17:46;47.13;;;12.53;;
10479;SDS011;12789;42.610;23.040;2023-02-28T05:20:13;61.10;;;13.27;;
10479;SDS011;12789;42.610;23.040;2023-02-28T05:22:40;57.73;;;11.87;;
10479;SDS011;12789;42.610;23.040;2023-02-28T05:25:08;93.47;;;39.77;;
10479;SDS011;12789;42.610;23.040;2023-02-28T05:27:38;36.87;;;17.57;;
10479;SDS011;12789;42.610;23.040;2023-02-28T05:30:06;44.57;;;13.50;;
10479;SDS011;12789;42.610;23.040;2023-02-28T05:32:37;32.23;;;13.97;;
10479;SDS011;12789;42.610;23.040;2023-02-28T05:35:04;34.53;;;13.43;;
10479;SDS011;12789;42.610;23.040;2023-02-28T05:37:31;42.00;;;14.23;;
10479;SDS011;12789;42.610;23.040;2023-02-28T05:39:58;32.80;;;13.70;;
10479;SDS011;12789;42.610;23.040;2023-02-28T05:42:25;35.33;;;13.77;;
10479;SDS011;12789;42.610;23.040;2023-02-28T05:44:55;61.60;;;21.20;;
10479;SDS011;12789;42.610;23.040;2023-02-28T05:47:22;29.80;;;14.30;;
10479;SDS011;12789;42.610;23.040;2023-02-28T05:49:50;46.70;;;13.53;;
10479;SDS011;12789;42.610;23.040;2023-02-28T05:52:17;28.00;;;13.90;;
10479;SDS011;12789;42.610;23.040;2023-02-28T05:54:46;35.17;;;12.47;;
10479;SDS011;12789;42.610;23.040;2023-02-28T05:57:13;39.47;;;13.50;;
10479;SDS011;12789;42.610;23.040;2023-02-28T05:59:41;39.40;;;12.73;;
10479;SDS011;12789;42.610;23.040;2023-02-28T06:02:08;43.17;;;14.67;;
10479;SDS011;12789;42.610;23.040;2023-02-28T06:04:38;34.33;;;14.37;;
10479;SDS011;12789;42.610;23.040;2023-02-28T06:07:07;52.30;;;17.87;;
10479;SDS011;12789;42.610;23.040;2023-02-28T06:09:35;37.57;;;16.37;;
10479;SDS011;12789;42.610;23.040;2023-02-28T06:12:05;43.07;;;18.10;;
10479;SDS011;12789;42.610;23.040;2023-02-28T06:14:35;41.27;;;18.67;;
10479;SDS011;12789;42.610;23.040;2023-02-28T06:17:02;41.43;;;19.57;;
10479;SDS011;12789;42.610;23.040;2023-02-28T06:19:30;43.97;;;18.67;;
10479;SDS011;12789;42.610;23.040;2023-02-28T06:21:57;42.60;;;18.57;;
10479;SDS011;12789;42.610;23.040;2023-02-28T06:24:26;39.60;;;17.20;;
10479;SDS011;12789;42.610;23.040;2023-02-28T06:26:55;39.30;;;16.90;;
10479;SDS011;12789;42.610;23.040;2023-02-28T06:29:24;46.40;;;18.50;;
10479;SDS011;12789;42.610;23.040;2023-02-28T06:31:51;41.37;;;18.57;;
10479;SDS011;12789;42.610;23.040;2023-02-28T06:34:18;44.10;;;19.43;;
10479;SDS011;12789;42.610;23.040;2023-02-28T06:36:44;60.13;;;25.57;;
10479;SDS011;12789;42.610;23.040;2023-02-28T06:39:14;58.67;;;25.10;;
10479;SDS011;12789;42.610;23.040;2023-02-28T06:41:44;45.13;;;21.53;;
10479;SDS011;12789;42.610;23.040;2023-02-28T06:44:11;51.37;;;23.87;;
10479;SDS011;12789;42.610;23.040;2023-02-28T06:46:39;48.57;;;23.50;;
10479;SDS011;12789;42.610;23.040;2023-02-28T06:49:06;46.93;;;21.70;;
10479;SDS011;12789;42.610;23.040;2023-02-28T06:51:35;54.43;;;22.80;;
10479;SDS011;12789;42.610;23.040;2023-02-28T06:54:05;54.27;;;22.97;;
10479;SDS011;12789;42.610;23.040;2023-02-28T06:56:34;52.77;;;22.47;;
10479;SDS011;12789;42.610;23.040;2023-02-28T06:59:03;52.40;;;24.30;;
10479;SDS011;12789;42.610;23.040;2023-02-28T07:01:30;57.00;;;24.23;;
10479;SDS011;12789;42.610;23.040;2023-02-28T07:03:58;57.73;;;24.07;;
10479;SDS011;12789;42.610;23.040;2023-02-28T07:06:26;50.70;;;23.03;;
10479;SDS011;12789;42.610;23.040;2023-02-28T07:08:54;49.43;;;23.83;;
10479;SDS011;12789;42.610;23.040;2023-02-28T07:11:22;57.93;;;23.13;;
10479;SDS011;12789;42.610;23.040;2023-02-28T07:13:51;47.97;;;24.10;;
10479;SDS011;12789;42.610;23.040;2023-02-28T07:16:20;62.63;;;24.10;;
10479;SDS011;12789;42.610;23.040;2023-02-28T07:18:55;61.53;;;24.87;;
10479;SDS011;12789;42.610;23.040;2023-02-28T07:21:22;56.07;;;24.93;;
10479;SDS011;12789;42.610;23.040;2023-02-28T07:23:49;66.03;;;26.70;;
10479;SDS011;12789;42.610;23.040;2023-02-28T07:26:21;65.17;;;28.77;;
10479;SDS011;12789;42.610;23.040;2023-02-28T07:28:50;57.80;;;26.83;;
10479;SDS011;12789;42.610;23.040;2023-02-28T07:31:17;49.10;;;24.90;;
10479;SDS011;12789;42.610;23.040;2023-02-28T07:33:49;44.83;;;23.63;;
10479;SDS011;12789;42.610;23.040;2023-02-28T07:36:24;56.80;;;28.13;;
10479;SDS011;12789;42.610;23.040;2023-02-28T07:38:51;61.20;;;25.17;;
10479;SDS011;12789;42.610;23.040;2023-02-28T07:41:19;52.83;;;24.37;;
10479;SDS011;12789;42.610;23.040;2023-02-28T07:43:49;47.00;;;24.30;;
10479;SDS011;12789;42.610;23.040;2023-02-28T07:46:22;46.83;;;23.73;;
10479;SDS011;12789;42.610;23.040;2023-02-28T07:48:50;49.27;;;20.97;;
10479;SDS011;12789;42.610;23.040;2023-02-28T07:51:19;39.17;;;19.50;;
10479;SDS011;12789;42.610;23.040;2023-02-28T07:53:46;43.13;;;21.57;;
10479;SDS011;12789;42.610;23.040;2023-02-28T07:56:13;43.03;;;22.00;;
10479;SDS011;12789;42.610;23.040;2023-02-28T07:58:40;53.23;;;23.53;;
10479;SDS011;12789;42.610;23.040;2023-02-28T08:01:11;45.83;;;23.37;;
10479;SDS011;12789;42.610;23.040;2023-02-28T08:03:42;47.47;;;22.10;;
10479;SDS011;12789;42.610;23.040;2023-02-28T08:06:16;40.00;;;21.63;;
10479;SDS011;12789;42.610;23.040;2023-02-28T08:08:46;32.40;;;18.60;;
10479;SDS011;12789;42.610;23.040;2023-02-28T08:11:21;54.57;;;29.63;;
10479;SDS011;12789;42.610;23.040;2023-02-28T08:13:56;26.07;;;13.60;;
10479;SDS011;12789;42.610;23.040;2023-02-28T08:16:25;23.47;;;14.63;;
10479;SDS011;12789;42.610;23.040;2023-02-28T08:18:53;23.77;;;13.50;;
10479;SDS011;12789;42.610;23.040;2023-02-28T08:21:28;19.73;;;10.97;;
10479;SDS011;12789;42.610;23.040;2023-02-28T08:23:55;15.63;;;8.73;;
10479;SDS011;12789;42.610;23.040;2023-02-28T08:26:28;19.80;;;10.37;;
10479;SDS011;12789;42.610;23.040;2023-02-28T08:28:55;19.57;;;11.80;;
10479;SDS011;12789;42.610;23.040;2023-02-28T08:31:22;25.53;;;14.97;;
10479;SDS011;12789;42.610;23.040;2023-02-28T08:33:52;27.33;;;15.87;;
10479;SDS011;12789;42.610;23.040;2023-02-28T08:36:41;26.70;;;15.20;;
10479;SDS011;12789;42.610;23.040;2023-02-28T08:39:13;23.60;;;14.17;;
10479;SDS011;12789;42.610;23.040;2023-02-28T08:41:48;22.03;;;12.47;;
10479;SDS011;12789;42.610;23.040;2023-02-28T08:44:14;22.23;;;11.77;;
10479;SDS011;12789;42.610;23.040;2023-02-28T08:46:43;25.07;;;11.27;;
10479;SDS011;12789;42.610;23.040;2023-02-28T08:49:10;19.53;;;11.17;;
10479;SDS011;12789;42.610;23.040;2023-02-28T08:51:48;18.77;;;10.23;;
10479;SDS011;12789;42.610;23.040;2023-02-28T08:54:17;20.23;;;11.97;;
10479;SDS011;12789;42.610;23.040;2023-02-28T08:56:50;19.30;;;12.23;;
10479;SDS011;12789;42.610;23.040;2023-02-28T08:59:24;29.80;;;14.47;;
10479;SDS011;12789;42.610;23.040;2023-02-28T09:02:11;20.10;;;12.50;;
10479;SDS011;12789;42.610;23.040;2023-02-28T09:05:05;21.43;;;13.53;;
10479;SDS011;12789;42.610;23.040;2023-02-28T09:07:42;32.80;;;14.60;;
10479;SDS011;12789;42.610;23.040;2023-02-28T09:10:11;22.90;;;14.17;;
10479;SDS011;12789;42.610;23.040;2023-02-28T09:12:38;28.40;;;15.40;;
10479;SDS011;12789;42.610;23.040;2023-02-28T09:15:05;29.33;;;15.80;;
10479;SDS011;12789;42.610;23.040;2023-02-28T09:17:33;29.43;;;15.47;;
10479;SDS011;12789;42.610;23.040;2023-02-28T09:20:00;27.07;;;15.90;;
10479;SDS011;12789;42.610;23.040;2023-02-28T09:22:27;26.67;;;16.07;;
10479;SDS011;12789;42.610;23.040;2023-02-28T09:24:55;27.37;;;16.93;;
10479;SDS011;12789;42.610;23.040;2023-02-28T09:27:24;29.00;;;15.73;;
10479;SDS011;12789;42.610;23.040;2023-02-28T09:29:51;26.97;;;16.87;;
10479;SDS011;12789;42.610;23.040;2023-02-28T09:32:18;27.60;;;16.03;;
10479;SDS011;12789;42.610;23.040;2023-02-28T09:34:45;27.23;;;15.93;;
10479;SDS011;12789;42.610;23.040;2023-02-28T09:37:11;21.47;;;13.20;;
10479;SDS011;12789;42.610;23.040;2023-02-28T09:39:38;25.47;;;14.63;;
10479;SDS011;12789;42.610;23.040;2023-02-28T09:42:16;26.97;;;14.93;;
10479;SDS011;12789;42.610;23.040;2023-02-28T09:45:00;23.87;;;14.07;;
10479;SDS011;12789;42.610;23.040;2023-02-28T09:47:33;26.77;;;14.63;;
10479;SDS011;12789;42.610;23.040;2023-02-28T09:50:05;24.77;;;14.57;;
10479;SDS011;12789;42.610;23.040;2023-02-28T09:52:43;22.27;;;12.90;;
10479;SDS011;12789;42.610;23.040;2023-02-28T09:55:18;32.67;;;13.97;;
10479;SDS011;12789;42.610;23.040;2023-02-28T09:57:49;24.70;;;13.40;;
10479;SDS011;12789;42.610;23.040;2023-02-28T10:00:17;29.33;;;14.33;;
10479;SDS011;12789;42.610;23.040;2023-02-28T10:02:51;27.17;;;14.97;;
10479;SDS011;12789;42.610;23.040;2023-02-28T10:05:26;26.67;;;14.80;;
10479;SDS011;12789;42.610;23.040;2023-02-28T10:08:02;28.50;;;14.60;;
10479;SDS011;12789;42.610;23.040;2023-02-28T10:10:39;35.43;;;17.10;;
10479;SDS011;12789;42.610;23.040;2023-02-28T10:13:22;40.93;;;18.03;;
10479;SDS011;12789;42.610;23.040;2023-02-28T10:15:54;38.73;;;17.67;;
10479;SDS011;12789;42.610;23.040;2023-02-28T10:18:28;36.77;;;16.23;;
10479;SDS011;12789;42.610;23.040;2023-02-28T10:21:05;38.43;;;16.77;;
10479;SDS011;12789;42.610;23.040;2023-02-28T10:23:35;38.00;;;17.63;;
10479;SDS011;12789;42.610;23.040;2023-02-28T10:26:08;37.23;;;18.37;;
10479;SDS011;12789;42.610;23.040;2023-02-28T10:28:39;30.23;;;18.57;;
10479;SDS011;12789;42.610;23.040;2023-02-28T10:31:08;38.10;;;18.87;;
10479;SDS011;12789;42.610;23.040;2023-02-28T10:33:41;34.30;;;16.67;;
10479;SDS011;12789;42.610;23.040;2023-02-28T10:36:10;34.10;;;18.70;;
10479;SDS011;12789;42.610;23.040;2023-02-28T10:38:42;37.50;;;19.90;;
10479;SDS011;12789;42.610;23.040;2023-02-28T10:41:10;37.70;;;20.10;;
10479;SDS011;12789;42.610;23.040;2023-02-28T10:43:40;30.70;;;20.27;;
10479;SDS011;12789;42.610;23.040;2023-02-28T10:46:12;32.47;;;19.53;;
10479;SDS011;12789;42.610;23.040;2023-02-28T10:48:57;38.30;;;19.67;;
10479;SDS011;12789;42.610;23.040;2023-02-28T10:51:33;37.03;;;20.40;;
10479;SDS011;12789;42.610;23.040;2023-02-28T10:54:03;29.67;;;19.70;;
10479;SDS011;12789;42.610;23.040;2023-02-28T10:56:31;36.40;;;21.13;;
10479;SDS011;12789;42.610;23.040;2023-02-28T10:59:00;37.37;;;20.20;;
10479;SDS011;12789;42.610;23.040;2023-02-28T11:01:35;34.17;;;21.37;;
10479;SDS011;12789;42.610;23.040;2023-02-28T11:04:11;30.57;;;19.77;;
10479;SDS011;12789;42.610;23.040;2023-02-28T11:06:44;31.67;;;19.30;;
10479;SDS011;12789;42.610;23.040;2023-02-28T11:09:16;31.17;;;18.97;;
10479;SDS011;12789;42.610;23.040;2023-02-28T11:11:49;29.50;;;18.07;;
10479;SDS011;12789;42.610;23.040;2023-02-28T11:14:20;36.80;;;20.03;;
10479;SDS011;12789;42.610;23.040;2023-02-28T11:16:50;37.70;;;21.40;;
10479;SDS011;12789;42.610;23.040;2023-02-28T11:19:19;37.33;;;21.10;;
10479;SDS011;12789;42.610;23.040;2023-02-28T11:21:51;30.07;;;20.10;;
10479;SDS011;12789;42.610;23.040;2023-02-28T11:24:22;39.03;;;20.33;;
10479;SDS011;12789;42.610;23.040;2023-02-28T11:26:50;40.23;;;19.60;;
10479;SDS011;12789;42.610;23.040;2023-02-28T11:29:20;32.03;;;20.30;;
10479;SDS011;12789;42.610;23.040;2023-02-28T11:32:00;34.10;;;20.23;;
10479;SDS011;12789;42.610;23.040;2023-02-28T11:34:29;31.80;;;19.13;;
10479;SDS011;12789;42.610;23.040;2023-02-28T11:36:58;27.30;;;17.93;;
10479;SDS011;12789;42.610;23.040;2023-02-28T11:39:30;29.70;;;17.90;;
10479;SDS011;12789;42.610;23.040;2023-02-28T11:45:17;34.50;;;20.17;;
10479;SDS011;12789;42.610;23.040;2023-02-28T11:47:53;34.45;;;18.92;;
10479;SDS011;12789;42.610;23.040;2023-02-28T11:50:39;35.37;;;20.30;;
10479;SDS011;12789;42.610;23.040;2023-02-28T11:53:14;32.57;;;18.70;;
10479;SDS011;12789;42.610;23.040;2023-02-28T11:55:48;31.38;;;17.83;;
10479;SDS011;12789;42.610;23.040;2023-02-28T11:58:23;39.85;;;19.55;;
10479;SDS011;12789;42.610;23.040;2023-02-28T12:01:06;32.95;;;18.90;;
10479;SDS011;12789;42.610;23.040;2023-02-28T12:04:03;33.95;;;19.38;;
10479;SDS011;12789;42.610;23.040;2023-02-28T12:06:43;35.00;;;18.85;;
10479;SDS011;12789;42.610;23.040;2023-02-28T12:12:06;40.47;;;19.48;;
10479;SDS011;12789;42.610;23.040;2023-02-28T12:17:58;30.70;;;18.85;;
10479;SDS011;12789;42.610;23.040;2023-02-28T12:20:35;37.45;;;19.60;;
10479;SDS011;12789;42.610;23.040;2023-02-28T12:23:14;38.97;;;21.30;;
10479;SDS011;12789;42.610;23.040;2023-02-28T12:26:04;38.15;;;20.23;;
10479;SDS011;12789;42.610;23.040;2023-02-28T12:28:37;32.63;;;18.23;;
10479;SDS011;12789;42.610;23.040;2023-02-28T12:31:09;28.80;;;18.95;;
10479;SDS011;12789;42.610;23.040;2023-02-28T12:33:43;33.25;;;21.02;;
10479;SDS011;12789;42.610;23.040;2023-02-28T12:36:14;35.17;;;19.67;;
10479;SDS011;12789;42.610;23.040;2023-02-28T12:38:44;37.75;;;19.73;;
10479;SDS011;12789;42.610;23.040;2023-02-28T12:41:16;47.53;;;26.67;;
10479;SDS011;12789;42.610;23.040;2023-02-28T12:43:46;38.92;;;21.25;;
10479;SDS011;12789;42.610;23.040;2023-02-28T12:46:18;37.15;;;21.08;;
10479;SDS011;12789;42.610;23.040;2023-02-28T12:48:58;30.58;;;17.70;;
10479;SDS011;12789;42.610;23.040;2023-02-28T12:55:03;34.83;;;20.05;;
10479;SDS011;12789;42.610;23.040;2023-02-28T12:57:58;36.25;;;20.33;;
10479;SDS011;12789;42.610;23.040;2023-02-28T13:00:35;36.25;;;20.58;;
10479;SDS011;12789;42.610;23.040;2023-02-28T13:03:20;37.88;;;19.58;;
10479;SDS011;12789;42.610;23.040;2023-02-28T13:06:28;32.28;;;19.17;;
10479;SDS011;12789;42.610;23.040;2023-02-28T13:09:15;36.38;;;19.38;;
10479;SDS011;12789;42.610;23.040;2023-02-28T13:11:55;30.58;;;19.38;;
10479;SDS011;12789;42.610;23.040;2023-02-28T13:18:57;33.50;;;17.55;;
10479;SDS011;12789;42.610;23.040;2023-02-28T13:21:24;29.98;;;17.38;;
10479;SDS011;12789;42.610;23.040;2023-02-28T13:27:23;33.10;;;18.15;;
10479;SDS011;12789;42.610;23.040;2023-02-28T13:28:13;31.48;;;16.98;;
10479;SDS011;12789;42.610;23.040;2023-02-28T13:31:26;31.45;;;17.70;;
10479;SDS011;12789;42.610;23.040;2023-02-28T13:34:11;37.92;;;18.13;;
10479;SDS011;12789;42.610;23.040;2023-02-28T13:36:45;34.22;;;18.38;;
10479;SDS011;12789;42.610;23.040;2023-02-28T13:42:22;28.65;;;16.73;;
10479;SDS011;12789;42.610;23.040;2023-02-28T13:48:03;25.52;;;13.88;;
10479;SDS011;12789;42.610;23.040;2023-02-28T13:50:33;29.50;;;14.23;;
10479;SDS011;12789;42.610;23.040;2023-02-28T13:56:21;34.53;;;13.40;;
10479;SDS011;12789;42.610;23.040;2023-02-28T13:59:01;27.42;;;13.85;;
10479;SDS011;12789;42.610;23.040;2023-02-28T14:01:46;28.98;;;14.57;;
10479;SDS011;12789;42.610;23.040;2023-02-28T14:04:37;22.38;;;12.52;;
10479;SDS011;12789;42.610;23.040;2023-02-28T14:07:28;30.00;;;12.82;;
10479;SDS011;12789;42.610;23.040;2023-02-28T14:10:15;24.13;;;13.18;;
10479;SDS011;12789;42.610;23.040;2023-02-28T14:13:02;29.65;;;11.60;;
10479;SDS011;12789;42.610;23.040;2023-02-28T14:15:55;35.80;;;12.68;;
10479;SDS011;12789;42.610;23.040;2023-02-28T14:18:36;24.33;;;13.27;;
10479;SDS011;12789;42.610;23.040;2023-02-28T14:21:11;27.90;;;12.48;;
10479;SDS011;12789;42.610;23.040;2023-02-28T14:27:28;20.75;;;11.60;;
10479;SDS011;12789;42.610;23.040;2023-02-28T14:30:19;22.95;;;12.20;;
10479;SDS011;12789;42.610;23.040;2023-02-28T14:33:22;24.70;;;11.75;;
10479;SDS011;12789;42.610;23.040;2023-02-28T14:36:00;25.23;;;12.30;;
10479;SDS011;12789;42.610;23.040;2023-02-28T14:38:46;23.55;;;11.98;;
10479;SDS011;12789;42.610;23.040;2023-02-28T14:41:23;28.98;;;11.88;;
10479;SDS011;12789;42.610;23.040;2023-02-28T14:44:13;30.33;;;11.82;;
10479;SDS011;12789;42.610;23.040;2023-02-28T14:46:48;24.48;;;13.15;;
10479;SDS011;12789;42.610;23.040;2023-02-28T14:49:20;21.35;;;12.40;;
10479;SDS011;12789;42.610;23.040;2023-02-28T14:52:00;27.60;;;13.27;;
10479;SDS011;12789;42.610;23.040;2023-02-28T14:54:38;31.60;;;14.32;;
10479;SDS011;12789;42.610;23.040;2023-02-28T14:57:05;26.33;;;14.63;;
10479;SDS011;12789;42.610;23.040;2023-02-28T14:59:34;28.42;;;13.65;;
10479;SDS011;12789;42.610;23.040;2023-02-28T15:02:16;25.17;;;13.57;;
10479;SDS011;12789;42.610;23.040;2023-02-28T15:04:58;29.58;;;14.48;;
10479;SDS011;12789;42.610;23.040;2023-02-28T15:07:42;29.55;;;12.70;;
10479;SDS011;12789;42.610;23.040;2023-02-28T15:10:19;30.65;;;13.27;;
10479;SDS011;12789;42.610;23.040;2023-02-28T15:13:01;30.17;;;14.80;;
10479;SDS011;12789;42.610;23.040;2023-02-28T15:15:40;33.60;;;15.90;;
10479;SDS011;12789;42.610;23.040;2023-02-28T15:18:21;32.53;;;13.68;;
10479;SDS011;12789;42.610;23.040;2023-02-28T15:20:56;36.00;;;14.87;;